sensor_id;sensor_type;location;lat;lon;timestamp;P1;durP1;ratioP1;P2;durP2;ratioP2
38208;SDS011;24016;52.102;11.584;2023-04-03T00:01:03;6.03;;;2.05;;
38208;SDS011;24016;52.102;11.584;2023-04-03T00:03:29;8.45;;;2.28;;
38208;SDS011;24016;52.102;11.584;2023-04-03T00:05:55;8.43;;;2.03;;
38208;SDS011;24016;52.102;11.584;2023-04-03T00:08:21;7.00;;;2.45;;
38208;SDS011;24016;52.102;11.584;2023-04-03T00:10:47;4.55;;;1.80;;
38208;SDS011;24016;52.102;11.584;2023-04-03T00:13:13;7.22;;;1.80;;
38208;SDS011;24016;52.102;11.584;2023-04-03T00:15:39;10.88;;;2.30;;
38208;SDS011;24016;52.102;11.584;2023-04-03T00:18:05;6.53;;;2.00;;
38208;SDS011;24016;52.102;11.584;2023-04-03T00:20:31;8.07;;;1.85;;
38208;SDS011;24016;52.102;11.584;2023-04-03T00:22:57;10.45;;;1.85;;
38208;SDS011;24016;52.102;11.584;2023-04-03T00:25:23;6.53;;;2.45;;
38208;SDS011;24016;52.102;11.584;2023-04-03T00:27:49;11.38;;;2.35;;
38208;SDS011;24016;52.102;11.584;2023-04-03T00:30:17;5.10;;;1.80;;
38208;SDS011;24016;52.102;11.584;2023-04-03T00:32:44;9.50;;;2.10;;
38208;SDS011;24016;52.102;11.584;2023-04-03T00:35:09;8.60;;;2.00;;
38208;SDS011;24016;52.102;11.584;2023-04-03T00:37:35;7.78;;;2.45;;
38208;SDS011;24016;52.102;11.584;2023-04-03T00:40:02;8.23;;;2.22;;
38208;SDS011;24016;52.102;11.584;2023-04-03T00:42:28;7.90;;;2.45;;
38208;SDS011;24016;52.102;11.584;2023-04-03T00:47:25;8.90;;;2.25;;
38208;SDS011;24016;52.102;11.584;2023-04-03T00:49:52;10.30;;;2.13;;
38208;SDS011;24016;52.102;11.584;2023-04-03T00:52:19;6.45;;;1.98;;
38208;SDS011;24016;52.102;11.584;2023-04-03T00:54:48;7.47;;;2.55;;
38208;SDS011;24016;52.102;11.584;2023-04-03T00:57:16;10.45;;;2.25;;
38208;SDS011;24016;52.102;11.584;2023-04-03T00:59:43;9.77;;;2.42;;
38208;SDS011;24016;52.102;11.584;2023-04-03T01:02:13;9.90;;;2.50;;
38208;SDS011;24016;52.102;11.584;2023-04-03T01:04:40;3.88;;;1.80;;
38208;SDS011;24016;52.102;11.584;2023-04-03T01:07:08;9.90;;;2.30;;
38208;SDS011;24016;52.102;11.584;2023-04-03T01:09:37;7.07;;;2.45;;
38208;SDS011;24016;52.102;11.584;2023-04-03T01:12:17;8.93;;;3.13;;
38208;SDS011;24016;52.102;11.584;2023-04-03T01:14:44;8.98;;;2.50;;
38208;SDS011;24016;52.102;11.584;2023-04-03T01:25:37;6.05;;;1.70;;
38208;SDS011;24016;52.102;11.584;2023-04-03T01:28:05;7.32;;;2.03;;
38208;SDS011;24016;52.102;11.584;2023-04-03T01:33:12;5.65;;;1.73;;
38208;SDS011;24016;52.102;11.584;2023-04-03T01:35:38;7.82;;;2.38;;
38208;SDS011;24016;52.102;11.584;2023-04-03T01:38:03;8.95;;;2.17;;
38208;SDS011;24016;52.102;11.584;2023-04-03T01:40:29;6.65;;;2.17;;
38208;SDS011;24016;52.102;11.584;2023-04-03T01:42:55;8.95;;;2.30;;
38208;SDS011;24016;52.102;11.584;2023-04-03T01:45:20;6.32;;;1.95;;
38208;SDS011;24016;52.102;11.584;2023-04-03T01:47:46;8.93;;;2.00;;
38208;SDS011;24016;52.102;11.584;2023-04-03T01:50:11;7.95;;;2.13;;
38208;SDS011;24016;52.102;11.584;2023-04-03T01:52:37;5.03;;;1.73;;
38208;SDS011;24016;52.102;11.584;2023-04-03T01:55:02;8.45;;;2.50;;
38208;SDS011;24016;52.102;11.584;2023-04-03T01:57:28;8.85;;;2.22;;
38208;SDS011;24016;52.102;11.584;2023-04-03T01:59:53;8.30;;;2.15;;
38208;SDS011;24016;52.102;11.584;2023-04-03T02:02:19;8.52;;;2.40;;
38208;SDS011;24016;52.102;11.584;2023-04-03T02:04:45;8.20;;;2.33;;
38208;SDS011;24016;52.102;11.584;2023-04-03T02:07:10;8.73;;;2.15;;
38208;SDS011;24016;52.102;11.584;2023-04-03T02:09:36;6.60;;;2.03;;
38208;SDS011;24016;52.102;11.584;2023-04-03T02:12:02;12.50;;;2.13;;
38208;SDS011;24016;52.102;11.584;2023-04-03T02:14:27;6.10;;;2.17;;
38208;SDS011;24016;52.102;11.584;2023-04-03T02:16:53;8.23;;;2.17;;
38208;SDS011;24016;52.102;11.584;2023-04-03T02:19:18;7.60;;;2.00;;
38208;SDS011;24016;52.102;11.584;2023-04-03T02:21:44;6.93;;;2.03;;
38208;SDS011;24016;52.102;11.584;2023-04-03T02:24:10;9.32;;;2.40;;
38208;SDS011;24016;52.102;11.584;2023-04-03T02:26:35;7.57;;;2.20;;
38208;SDS011;24016;52.102;11.584;2023-04-03T02:29:01;8.98;;;2.55;;
38208;SDS011;24016;52.102;11.584;2023-04-03T02:31:26;7.53;;;2.05;;
38208;SDS011;24016;52.102;11.584;2023-04-03T02:33:52;8.52;;;2.38;;
38208;SDS011;24016;52.102;11.584;2023-04-03T02:36:17;6.38;;;2.00;;
38208;SDS011;24016;52.102;11.584;2023-04-03T02:38:43;7.22;;;1.90;;
38208;SDS011;24016;52.102;11.584;2023-04-03T02:41:09;5.65;;;2.13;;
38208;SDS011;24016;52.102;11.584;2023-04-03T02:43:37;7.45;;;2.35;;
38208;SDS011;24016;52.102;11.584;2023-04-03T02:46:03;5.40;;;1.75;;
38208;SDS011;24016;52.102;11.584;2023-04-03T02:48:29;9.95;;;2.33;;
38208;SDS011;24016;52.102;11.584;2023-04-03T02:50:55;7.45;;;1.95;;
38208;SDS011;24016;52.102;11.584;2023-04-03T02:53:21;6.25;;;2.00;;
38208;SDS011;24016;52.102;11.584;2023-04-03T02:55:47;10.27;;;2.25;;
38208;SDS011;24016;52.102;11.584;2023-04-03T02:58:13;5.97;;;1.88;;
38208;SDS011;24016;52.102;11.584;2023-04-03T03:00:38;5.82;;;1.63;;
38208;SDS011;24016;52.102;11.584;2023-04-03T03:03:04;7.55;;;2.20;;
38208;SDS011;24016;52.102;11.584;2023-04-03T03:05:29;5.82;;;2.60;;
38208;SDS011;24016;52.102;11.584;2023-04-03T03:07:55;8.32;;;2.20;;
38208;SDS011;24016;52.102;11.584;2023-04-03T03:10:21;8.38;;;2.28;;
38208;SDS011;24016;52.102;11.584;2023-04-03T03:12:47;7.35;;;2.47;;
38208;SDS011;24016;52.102;11.584;2023-04-03T03:15:13;7.30;;;2.05;;
38208;SDS011;24016;52.102;11.584;2023-04-03T03:17:40;3.72;;;1.60;;
38208;SDS011;24016;52.102;11.584;2023-04-03T03:20:06;10.23;;;2.28;;
38208;SDS011;24016;52.102;11.584;2023-04-03T03:22:33;6.60;;;2.05;;
38208;SDS011;24016;52.102;11.584;2023-04-03T03:24:59;5.18;;;1.70;;
38208;SDS011;24016;52.102;11.584;2023-04-03T03:27:26;8.00;;;2.00;;
38208;SDS011;24016;52.102;11.584;2023-04-03T03:29:51;7.20;;;2.03;;
38208;SDS011;24016;52.102;11.584;2023-04-03T03:32:17;10.88;;;2.20;;
38208;SDS011;24016;52.102;11.584;2023-04-03T03:34:42;6.35;;;1.77;;
38208;SDS011;24016;52.102;11.584;2023-04-03T03:37:08;5.78;;;1.92;;
38208;SDS011;24016;52.102;11.584;2023-04-03T03:39:33;5.70;;;2.10;;
38208;SDS011;24016;52.102;11.584;2023-04-03T03:41:59;5.70;;;2.03;;
38208;SDS011;24016;52.102;11.584;2023-04-03T03:44:24;5.93;;;1.60;;
38208;SDS011;24016;52.102;11.584;2023-04-03T03:46:50;6.25;;;1.95;;
38208;SDS011;24016;52.102;11.584;2023-04-03T03:49:16;10.82;;;2.40;;
38208;SDS011;24016;52.102;11.584;2023-04-03T03:51:41;7.57;;;2.20;;
38208;SDS011;24016;52.102;11.584;2023-04-03T03:54:07;6.78;;;1.98;;
38208;SDS011;24016;52.102;11.584;2023-04-03T03:56:33;8.80;;;2.45;;
38208;SDS011;24016;52.102;11.584;2023-04-03T03:58:58;6.25;;;1.85;;
38208;SDS011;24016;52.102;11.584;2023-04-03T04:01:24;10.27;;;2.55;;
38208;SDS011;24016;52.102;11.584;2023-04-03T04:03:50;7.05;;;1.67;;
38208;SDS011;24016;52.102;11.584;2023-04-03T04:06:16;6.55;;;1.80;;
38208;SDS011;24016;52.102;11.584;2023-04-03T04:08:42;4.88;;;1.50;;
38208;SDS011;24016;52.102;11.584;2023-04-03T04:11:08;9.30;;;2.22;;
38208;SDS011;24016;52.102;11.584;2023-04-03T04:13:34;4.10;;;1.65;;
38208;SDS011;24016;52.102;11.584;2023-04-03T04:16:00;6.53;;;1.80;;
38208;SDS011;24016;52.102;11.584;2023-04-03T04:18:25;8.60;;;1.90;;
38208;SDS011;24016;52.102;11.584;2023-04-03T04:20:51;5.95;;;1.88;;
38208;SDS011;24016;52.102;11.584;2023-04-03T04:23:17;6.50;;;1.67;;
38208;SDS011;24016;52.102;11.584;2023-04-03T04:25:49;6.28;;;1.90;;
38208;SDS011;24016;52.102;11.584;2023-04-03T04:28:15;6.43;;;1.92;;
38208;SDS011;24016;52.102;11.584;2023-04-03T04:30:41;11.23;;;1.85;;
38208;SDS011;24016;52.102;11.584;2023-04-03T04:33:07;6.45;;;2.00;;
38208;SDS011;24016;52.102;11.584;2023-04-03T04:35:33;8.57;;;2.28;;
38208;SDS011;24016;52.102;11.584;2023-04-03T04:37:58;7.15;;;1.80;;
38208;SDS011;24016;52.102;11.584;2023-04-03T04:40:24;7.60;;;2.05;;
38208;SDS011;24016;52.102;11.584;2023-04-03T04:42:50;6.45;;;2.22;;
38208;SDS011;24016;52.102;11.584;2023-04-03T04:45:16;5.93;;;1.90;;
38208;SDS011;24016;52.102;11.584;2023-04-03T04:47:42;5.97;;;2.10;;
38208;SDS011;24016;52.102;11.584;2023-04-03T04:50:07;10.18;;;2.50;;
38208;SDS011;24016;52.102;11.584;2023-04-03T04:52:33;6.07;;;2.15;;
38208;SDS011;24016;52.102;11.584;2023-04-03T04:54:59;11.30;;;2.20;;
38208;SDS011;24016;52.102;11.584;2023-04-03T04:57:24;4.70;;;1.90;;
38208;SDS011;24016;52.102;11.584;2023-04-03T04:59:50;9.80;;;2.72;;
38208;SDS011;24016;52.102;11.584;2023-04-03T05:02:16;10.48;;;2.55;;
38208;SDS011;24016;52.102;11.584;2023-04-03T05:04:41;8.23;;;2.10;;
38208;SDS011;24016;52.102;11.584;2023-04-03T05:07:07;5.43;;;2.00;;
38208;SDS011;24016;52.102;11.584;2023-04-03T05:09:32;4.25;;;1.75;;
38208;SDS011;24016;52.102;11.584;2023-04-03T05:11:58;8.73;;;2.22;;
38208;SDS011;24016;52.102;11.584;2023-04-03T05:14:23;5.03;;;2.00;;
38208;SDS011;24016;52.102;11.584;2023-04-03T05:16:49;6.40;;;2.60;;
38208;SDS011;24016;52.102;11.584;2023-04-03T05:19:17;8.23;;;2.42;;
38208;SDS011;24016;52.102;11.584;2023-04-03T05:21:43;6.22;;;2.70;;
38208;SDS011;24016;52.102;11.584;2023-04-03T05:24:09;6.05;;;2.67;;
38208;SDS011;24016;52.102;11.584;2023-04-03T05:26:35;8.05;;;3.05;;
38208;SDS011;24016;52.102;11.584;2023-04-03T05:29:00;10.43;;;2.63;;
38208;SDS011;24016;52.102;11.584;2023-04-03T05:31:26;8.55;;;2.80;;
38208;SDS011;24016;52.102;11.584;2023-04-03T05:33:54;4.55;;;2.50;;
38208;SDS011;24016;52.102;11.584;2023-04-03T05:36:20;6.63;;;2.85;;
38208;SDS011;24016;52.102;11.584;2023-04-03T05:38:46;8.65;;;2.55;;
38208;SDS011;24016;52.102;11.584;2023-04-03T05:41:11;6.53;;;2.05;;
38208;SDS011;24016;52.102;11.584;2023-04-03T05:43:37;11.00;;;2.60;;
38208;SDS011;24016;52.102;11.584;2023-04-03T05:46:03;4.95;;;2.28;;
38208;SDS011;24016;52.102;11.584;2023-04-03T05:48:33;7.00;;;2.58;;
38208;SDS011;24016;52.102;11.584;2023-04-03T05:50:59;9.80;;;2.47;;
38208;SDS011;24016;52.102;11.584;2023-04-03T05:53:26;4.82;;;2.00;;
38208;SDS011;24016;52.102;11.584;2023-04-03T05:55:53;9.95;;;2.58;;
38208;SDS011;24016;52.102;11.584;2023-04-03T05:58:18;7.15;;;2.20;;
38208;SDS011;24016;52.102;11.584;2023-04-03T06:00:44;9.25;;;2.33;;
38208;SDS011;24016;52.102;11.584;2023-04-03T06:03:10;7.32;;;2.45;;
38208;SDS011;24016;52.102;11.584;2023-04-03T06:05:36;5.57;;;2.25;;
38208;SDS011;24016;52.102;11.584;2023-04-03T06:08:02;9.60;;;2.60;;
38208;SDS011;24016;52.102;11.584;2023-04-03T06:10:28;10.38;;;2.55;;
38208;SDS011;24016;52.102;11.584;2023-04-03T06:12:53;9.27;;;2.60;;
38208;SDS011;24016;52.102;11.584;2023-04-03T06:15:19;6.65;;;2.30;;
38208;SDS011;24016;52.102;11.584;2023-04-03T06:17:46;8.10;;;2.03;;
38208;SDS011;24016;52.102;11.584;2023-04-03T06:20:11;7.68;;;2.33;;
38208;SDS011;24016;52.102;11.584;2023-04-03T06:22:38;5.90;;;2.20;;
38208;SDS011;24016;52.102;11.584;2023-04-03T06:25:03;5.15;;;2.47;;
38208;SDS011;24016;52.102;11.584;2023-04-03T06:27:30;4.28;;;1.70;;
38208;SDS011;24016;52.102;11.584;2023-04-03T06:29:55;5.35;;;1.90;;
38208;SDS011;24016;52.102;11.584;2023-04-03T06:32:21;5.60;;;2.25;;
38208;SDS011;24016;52.102;11.584;2023-04-03T06:34:46;6.85;;;2.08;;
38208;SDS011;24016;52.102;11.584;2023-04-03T06:37:16;6.15;;;2.50;;
38208;SDS011;24016;52.102;11.584;2023-04-03T06:39:44;7.07;;;1.98;;
38208;SDS011;24016;52.102;11.584;2023-04-03T06:42:10;6.10;;;2.10;;
38208;SDS011;24016;52.102;11.584;2023-04-03T06:44:36;5.30;;;2.10;;
38208;SDS011;24016;52.102;11.584;2023-04-03T06:47:01;4.40;;;1.85;;
38208;SDS011;24016;52.102;11.584;2023-04-03T06:49:27;6.20;;;2.53;;
38208;SDS011;24016;52.102;11.584;2023-04-03T06:51:53;7.13;;;2.38;;
38208;SDS011;24016;52.102;11.584;2023-04-03T06:54:19;6.05;;;2.25;;
38208;SDS011;24016;52.102;11.584;2023-04-03T06:56:45;8.45;;;2.42;;
38208;SDS011;24016;52.102;11.584;2023-04-03T06:59:11;8.63;;;2.28;;
38208;SDS011;24016;52.102;11.584;2023-04-03T07:01:40;5.65;;;1.90;;
38208;SDS011;24016;52.102;11.584;2023-04-03T07:04:06;6.65;;;2.35;;
38208;SDS011;24016;52.102;11.584;2023-04-03T07:06:33;5.70;;;1.85;;
38208;SDS011;24016;52.102;11.584;2023-04-03T07:08:59;6.32;;;2.10;;
38208;SDS011;24016;52.102;11.584;2023-04-03T07:11:25;6.80;;;1.98;;
38208;SDS011;24016;52.102;11.584;2023-04-03T07:13:51;5.63;;;2.22;;
38208;SDS011;24016;52.102;11.584;2023-04-03T07:16:17;6.70;;;2.10;;
38208;SDS011;24016;52.102;11.584;2023-04-03T07:18:43;3.90;;;1.67;;
38208;SDS011;24016;52.102;11.584;2023-04-03T07:21:09;9.27;;;2.40;;
38208;SDS011;24016;52.102;11.584;2023-04-03T07:23:35;5.15;;;2.13;;
38208;SDS011;24016;52.102;11.584;2023-04-03T07:26:01;6.55;;;2.00;;
38208;SDS011;24016;52.102;11.584;2023-04-03T07:28:27;8.07;;;2.22;;
38208;SDS011;24016;52.102;11.584;2023-04-03T07:30:54;9.60;;;2.63;;
38208;SDS011;24016;52.102;11.584;2023-04-03T07:33:25;7.07;;;1.92;;
38208;SDS011;24016;52.102;11.584;2023-04-03T07:35:51;6.45;;;2.38;;
38208;SDS011;24016;52.102;11.584;2023-04-03T07:38:16;6.75;;;2.00;;
38208;SDS011;24016;52.102;11.584;2023-04-03T07:40:49;4.40;;;1.88;;
38208;SDS011;24016;52.102;11.584;2023-04-03T07:43:16;4.75;;;1.88;;
38208;SDS011;24016;52.102;11.584;2023-04-03T07:45:42;3.80;;;1.58;;
38208;SDS011;24016;52.102;11.584;2023-04-03T07:48:09;4.78;;;1.50;;
38208;SDS011;24016;52.102;11.584;2023-04-03T07:50:35;4.15;;;1.88;;
38208;SDS011;24016;52.102;11.584;2023-04-03T07:53:01;6.18;;;1.70;;
38208;SDS011;24016;52.102;11.584;2023-04-03T07:55:27;5.68;;;1.73;;
38208;SDS011;24016;52.102;11.584;2023-04-03T07:57:53;5.03;;;1.58;;
38208;SDS011;24016;52.102;11.584;2023-04-03T08:00:19;4.97;;;1.40;;
38208;SDS011;24016;52.102;11.584;2023-04-03T08:02:45;4.63;;;1.60;;
38208;SDS011;24016;52.102;11.584;2023-04-03T08:05:15;6.53;;;2.00;;
38208;SDS011;24016;52.102;11.584;2023-04-03T08:07:41;7.32;;;1.90;;
38208;SDS011;24016;52.102;11.584;2023-04-03T08:10:07;5.15;;;1.77;;
38208;SDS011;24016;52.102;11.584;2023-04-03T08:12:33;6.88;;;1.52;;
38208;SDS011;24016;52.102;11.584;2023-04-03T08:14:59;4.57;;;1.50;;
38208;SDS011;24016;52.102;11.584;2023-04-03T08:17:26;6.03;;;1.70;;
38208;SDS011;24016;52.102;11.584;2023-04-03T08:19:51;4.07;;;1.70;;
38208;SDS011;24016;52.102;11.584;2023-04-03T08:22:17;6.22;;;1.77;;
38208;SDS011;24016;52.102;11.584;2023-04-03T08:24:42;3.72;;;1.70;;
38208;SDS011;24016;52.102;11.584;2023-04-03T08:27:08;7.85;;;1.40;;
38208;SDS011;24016;52.102;11.584;2023-04-03T08:29:33;3.55;;;1.65;;
38208;SDS011;24016;52.102;11.584;2023-04-03T08:32:02;5.35;;;1.52;;
38208;SDS011;24016;52.102;11.584;2023-04-03T08:34:28;4.63;;;1.40;;
38208;SDS011;24016;52.102;11.584;2023-04-03T08:36:54;9.18;;;3.97;;
38208;SDS011;24016;52.102;11.584;2023-04-03T08:39:20;2.75;;;1.40;;
38208;SDS011;24016;52.102;11.584;2023-04-03T08:41:46;3.67;;;1.30;;
38208;SDS011;24016;52.102;11.584;2023-04-03T08:44:24;8.38;;;1.50;;
38208;SDS011;24016;52.102;11.584;2023-04-03T08:49:44;9.30;;;1.75;;
38208;SDS011;24016;52.102;11.584;2023-04-03T08:52:15;3.90;;;1.40;;
38208;SDS011;24016;52.102;11.584;2023-04-03T08:54:49;3.97;;;1.52;;
38208;SDS011;24016;52.102;11.584;2023-04-03T08:57:20;3.33;;;1.35;;
38208;SDS011;24016;52.102;11.584;2023-04-03T09:00:11;2.97;;;1.30;;
38208;SDS011;24016;52.102;11.584;2023-04-03T09:02:43;4.05;;;1.48;;
38208;SDS011;24016;52.102;11.584;2023-04-03T09:05:13;2.78;;;1.10;;
38208;SDS011;24016;52.102;11.584;2023-04-03T09:07:42;4.38;;;1.30;;
38208;SDS011;24016;52.102;11.584;2023-04-03T09:10:14;3.45;;;1.27;;
38208;SDS011;24016;52.102;11.584;2023-04-03T09:12:45;3.53;;;1.38;;
38208;SDS011;24016;52.102;11.584;2023-04-03T09:15:18;3.00;;;1.30;;
38208;SDS011;24016;52.102;11.584;2023-04-03T09:18:05;3.03;;;1.30;;
38208;SDS011;24016;52.102;11.584;2023-04-03T09:21:25;4.10;;;1.15;;
38208;SDS011;24016;52.102;11.584;2023-04-03T09:23:51;6.82;;;1.40;;
38208;SDS011;24016;52.102;11.584;2023-04-03T09:26:23;3.38;;;1.30;;
38208;SDS011;24016;52.102;11.584;2023-04-03T09:28:51;2.87;;;1.40;;
38208;SDS011;24016;52.102;11.584;2023-04-03T09:31:24;4.28;;;1.25;;
38208;SDS011;24016;52.102;11.584;2023-04-03T09:33:53;4.22;;;1.15;;
38208;SDS011;24016;52.102;11.584;2023-04-03T09:39:11;3.85;;;1.05;;
38208;SDS011;24016;52.102;11.584;2023-04-03T09:41:40;5.03;;;1.50;;
38208;SDS011;24016;52.102;11.584;2023-04-03T09:44:20;4.65;;;1.33;;
38208;SDS011;24016;52.102;11.584;2023-04-03T09:46:50;3.33;;;1.60;;
38208;SDS011;24016;52.102;11.584;2023-04-03T09:49:16;5.10;;;1.60;;
38208;SDS011;24016;52.102;11.584;2023-04-03T09:51:43;3.67;;;1.40;;
38208;SDS011;24016;52.102;11.584;2023-04-03T09:54:29;3.25;;;1.20;;
38208;SDS011;24016;52.102;11.584;2023-04-03T09:56:58;6.50;;;1.40;;
38208;SDS011;24016;52.102;11.584;2023-04-03T09:59:43;3.20;;;1.20;;
38208;SDS011;24016;52.102;11.584;2023-04-03T10:02:28;2.85;;;1.10;;
38208;SDS011;24016;52.102;11.584;2023-04-03T10:05:00;3.10;;;1.40;;
38208;SDS011;24016;52.102;11.584;2023-04-03T10:07:27;2.33;;;0.98;;
38208;SDS011;24016;52.102;11.584;2023-04-03T10:09:56;7.80;;;1.50;;
38208;SDS011;24016;52.102;11.584;2023-04-03T10:12:23;3.00;;;1.10;;
38208;SDS011;24016;52.102;11.584;2023-04-03T10:17:18;4.72;;;1.27;;
38208;SDS011;24016;52.102;11.584;2023-04-03T10:22:37;3.65;;;1.23;;
38208;SDS011;24016;52.102;11.584;2023-04-03T10:27:46;2.17;;;0.98;;
38208;SDS011;24016;52.102;11.584;2023-04-03T10:33:36;3.58;;;1.30;;
38208;SDS011;24016;52.102;11.584;2023-04-03T10:41:36;3.22;;;1.33;;
38208;SDS011;24016;52.102;11.584;2023-04-03T10:44:40;2.25;;;1.17;;
38208;SDS011;24016;52.102;11.584;2023-04-03T10:50:26;3.08;;;1.20;;
38208;SDS011;24016;52.102;11.584;2023-04-03T10:58:36;4.38;;;1.00;;
38208;SDS011;24016;52.102;11.584;2023-04-03T11:01:06;3.95;;;1.20;;
38208;SDS011;24016;52.102;11.584;2023-04-03T11:03:36;4.30;;;1.23;;
38208;SDS011;24016;52.102;11.584;2023-04-03T11:06:07;3.13;;;1.40;;
38208;SDS011;24016;52.102;11.584;2023-04-03T11:08:51;2.65;;;1.20;;
38208;SDS011;24016;52.102;11.584;2023-04-03T11:11:22;3.03;;;1.20;;
38208;SDS011;24016;52.102;11.584;2023-04-03T11:14:13;2.65;;;1.10;;
38208;SDS011;24016;52.102;11.584;2023-04-03T11:16:47;2.10;;;1.15;;
38208;SDS011;24016;52.102;11.584;2023-04-03T11:19:18;3.42;;;1.20;;
38208;SDS011;24016;52.102;11.584;2023-04-03T11:22:01;5.45;;;1.35;;
38208;SDS011;24016;52.102;11.584;2023-04-03T11:24:33;5.10;;;1.38;;
38208;SDS011;24016;52.102;11.584;2023-04-03T11:27:03;3.65;;;1.00;;
38208;SDS011;24016;52.102;11.584;2023-04-03T11:29:34;3.50;;;1.35;;
38208;SDS011;24016;52.102;11.584;2023-04-03T11:35:09;3.78;;;1.25;;
38208;SDS011;24016;52.102;11.584;2023-04-03T11:37:39;4.10;;;1.50;;
38208;SDS011;24016;52.102;11.584;2023-04-03T11:42:54;3.38;;;1.13;;
38208;SDS011;24016;52.102;11.584;2023-04-03T11:45:34;1.67;;;1.02;;
38208;SDS011;24016;52.102;11.584;2023-04-03T11:48:06;5.55;;;1.23;;
38208;SDS011;24016;52.102;11.584;2023-04-03T11:50:45;2.42;;;1.20;;
38208;SDS011;24016;52.102;11.584;2023-04-03T11:55:42;2.40;;;1.10;;
38208;SDS011;24016;52.102;11.584;2023-04-03T11:58:25;2.33;;;0.93;;
38208;SDS011;24016;52.102;11.584;2023-04-03T12:06:47;4.78;;;1.38;;
38208;SDS011;24016;52.102;11.584;2023-04-03T12:08:52;1.33;;;0.98;;
38208;SDS011;24016;52.102;11.584;2023-04-03T12:11:24;3.47;;;1.20;;
38208;SDS011;24016;52.102;11.584;2023-04-03T12:16:24;3.78;;;1.17;;
38208;SDS011;24016;52.102;11.584;2023-04-03T12:29:38;4.93;;;1.52;;
38208;SDS011;24016;52.102;11.584;2023-04-03T12:32:36;2.17;;;1.10;;
38208;SDS011;24016;52.102;11.584;2023-04-03T12:35:24;3.20;;;1.10;;
38208;SDS011;24016;52.102;11.584;2023-04-03T12:46:37;3.90;;;1.20;;
38208;SDS011;24016;52.102;11.584;2023-04-03T12:51:57;4.00;;;1.05;;
38208;SDS011;24016;52.102;11.584;2023-04-03T12:54:29;2.45;;;1.23;;
38208;SDS011;24016;52.102;11.584;2023-04-03T12:57:11;3.10;;;1.27;;
38208;SDS011;24016;52.102;11.584;2023-04-03T12:59:41;3.47;;;1.10;;
38208;SDS011;24016;52.102;11.584;2023-04-03T13:02:15;2.95;;;1.10;;
38208;SDS011;24016;52.102;11.584;2023-04-03T13:04:44;1.92;;;1.00;;
38208;SDS011;24016;52.102;11.584;2023-04-03T13:07:27;2.58;;;1.20;;
38208;SDS011;24016;52.102;11.584;2023-04-03T13:09:58;2.45;;;1.25;;
38208;SDS011;24016;52.102;11.584;2023-04-03T13:12:25;6.10;;;1.25;;
38208;SDS011;24016;52.102;11.584;2023-04-03T13:14:56;5.43;;;1.58;;
38208;SDS011;24016;52.102;11.584;2023-04-03T13:17:25;3.47;;;1.20;;
38208;SDS011;24016;52.102;11.584;2023-04-03T13:19:51;5.65;;;1.15;;
38208;SDS011;24016;52.102;11.584;2023-04-03T13:24:58;4.28;;;1.13;;
38208;SDS011;24016;52.102;11.584;2023-04-03T13:27:29;3.13;;;1.03;;
38208;SDS011;24016;52.102;11.584;2023-04-03T13:29:57;3.08;;;1.40;;
38208;SDS011;24016;52.102;11.584;2023-04-03T13:32:26;1.65;;;1.05;;
38208;SDS011;24016;52.102;11.584;2023-04-03T13:34:55;3.22;;;1.30;;
38208;SDS011;24016;52.102;11.584;2023-04-03T13:37:22;3.55;;;1.30;;
38208;SDS011;24016;52.102;11.584;2023-04-03T13:42:44;2.15;;;1.00;;
38208;SDS011;24016;52.102;11.584;2023-04-03T13:45:16;2.83;;;1.15;;
38208;SDS011;24016;52.102;11.584;2023-04-03T13:47:51;3.97;;;1.40;;
38208;SDS011;24016;52.102;11.584;2023-04-03T13:50:24;3.13;;;1.20;;
38208;SDS011;24016;52.102;11.584;2023-04-03T13:52:54;5.15;;;1.23;;
38208;SDS011;24016;52.102;11.584;2023-04-03T13:55:26;4.05;;;1.20;;
38208;SDS011;24016;52.102;11.584;2023-04-03T14:03:11;4.10;;;1.52;;
38208;SDS011;24016;52.102;11.584;2023-04-03T14:05:38;5.65;;;1.30;;
38208;SDS011;24016;52.102;11.584;2023-04-03T14:08:03;5.32;;;1.30;;
38208;SDS011;24016;52.102;11.584;2023-04-03T14:10:31;2.70;;;0.98;;
38208;SDS011;24016;52.102;11.584;2023-04-03T14:12:56;4.50;;;1.73;;
38208;SDS011;24016;52.102;11.584;2023-04-03T14:15:24;2.83;;;1.27;;
38208;SDS011;24016;52.102;11.584;2023-04-03T14:17:53;2.73;;;1.00;;
38208;SDS011;24016;52.102;11.584;2023-04-03T14:20:21;3.85;;;1.23;;
38208;SDS011;24016;52.102;11.584;2023-04-03T14:22:48;3.85;;;1.35;;
38208;SDS011;24016;52.102;11.584;2023-04-03T14:25:15;3.33;;;1.17;;
38208;SDS011;24016;52.102;11.584;2023-04-03T14:27:42;4.25;;;1.30;;
38208;SDS011;24016;52.102;11.584;2023-04-03T14:30:14;4.93;;;1.70;;
38208;SDS011;24016;52.102;11.584;2023-04-03T14:32:46;2.20;;;0.90;;
38208;SDS011;24016;52.102;11.584;2023-04-03T14:35:12;4.50;;;1.40;;
38208;SDS011;24016;52.102;11.584;2023-04-03T14:37:39;4.60;;;1.33;;
38208;SDS011;24016;52.102;11.584;2023-04-03T14:40:05;3.00;;;1.02;;
38208;SDS011;24016;52.102;11.584;2023-04-03T14:42:32;4.15;;;1.23;;
38208;SDS011;24016;52.102;11.584;2023-04-03T14:45:00;3.20;;;1.48;;
38208;SDS011;24016;52.102;11.584;2023-04-03T14:47:28;2.50;;;1.20;;
38208;SDS011;24016;52.102;11.584;2023-04-03T14:49:55;3.47;;;1.25;;
38208;SDS011;24016;52.102;11.584;2023-04-03T14:52:25;4.10;;;1.38;;
38208;SDS011;24016;52.102;11.584;2023-04-03T14:54:53;2.55;;;1.30;;
38208;SDS011;24016;52.102;11.584;2023-04-03T14:57:19;4.22;;;1.33;;
38208;SDS011;24016;52.102;11.584;2023-04-03T14:59:48;3.75;;;1.10;;
38208;SDS011;24016;52.102;11.584;2023-04-03T15:02:24;3.35;;;1.27;;
38208;SDS011;24016;52.102;11.584;2023-04-03T15:04:52;3.92;;;1.30;;
38208;SDS011;24016;52.102;11.584;2023-04-03T15:07:18;2.88;;;1.17;;
38208;SDS011;24016;52.102;11.584;2023-04-03T15:09:44;2.50;;;1.23;;
38208;SDS011;24016;52.102;11.584;2023-04-03T15:12:09;2.85;;;1.17;;
38208;SDS011;24016;52.102;11.584;2023-04-03T15:14:35;2.83;;;1.33;;
38208;SDS011;24016;52.102;11.584;2023-04-03T15:17:01;4.40;;;1.40;;
38208;SDS011;24016;52.102;11.584;2023-04-03T15:19:28;2.17;;;1.08;;
38208;SDS011;24016;52.102;11.584;2023-04-03T15:21:54;2.20;;;1.20;;
38208;SDS011;24016;52.102;11.584;2023-04-03T15:24:20;2.95;;;1.10;;
38208;SDS011;24016;52.102;11.584;2023-04-03T15:26:45;3.08;;;1.20;;
38208;SDS011;24016;52.102;11.584;2023-04-03T15:29:11;1.73;;;0.80;;
38208;SDS011;24016;52.102;11.584;2023-04-03T15:31:37;2.38;;;1.05;;
38208;SDS011;24016;52.102;11.584;2023-04-03T15:34:02;4.07;;;1.38;;
38208;SDS011;24016;52.102;11.584;2023-04-03T15:36:28;5.07;;;1.60;;
38208;SDS011;24016;52.102;11.584;2023-04-03T15:38:53;3.97;;;1.38;;
38208;SDS011;24016;52.102;11.584;2023-04-03T15:41:19;3.65;;;1.50;;
38208;SDS011;24016;52.102;11.584;2023-04-03T15:43:44;4.25;;;1.40;;
38208;SDS011;24016;52.102;11.584;2023-04-03T15:46:10;3.85;;;1.40;;
38208;SDS011;24016;52.102;11.584;2023-04-03T15:48:37;4.30;;;1.30;;
38208;SDS011;24016;52.102;11.584;2023-04-03T15:51:02;2.35;;;1.10;;
38208;SDS011;24016;52.102;11.584;2023-04-03T15:53:28;3.05;;;1.15;;
38208;SDS011;24016;52.102;11.584;2023-04-03T15:55:54;3.00;;;1.20;;
38208;SDS011;24016;52.102;11.584;2023-04-03T15:58:19;2.88;;;1.10;;
38208;SDS011;24016;52.102;11.584;2023-04-03T16:00:45;2.47;;;1.02;;
38208;SDS011;24016;52.102;11.584;2023-04-03T16:03:18;4.65;;;1.20;;
38208;SDS011;24016;52.102;11.584;2023-04-03T16:05:45;3.53;;;1.30;;
38208;SDS011;24016;52.102;11.584;2023-04-03T16:08:11;4.13;;;1.60;;
38208;SDS011;24016;52.102;11.584;2023-04-03T16:10:37;2.58;;;1.10;;
38208;SDS011;24016;52.102;11.584;2023-04-03T16:13:04;4.30;;;1.20;;